sensor_id;sensor_type;location;lat;lon;timestamp;pressure;altitude;pressure_sealevel;temperature;humidity
61478;BME280;47345;52.334;10.392;2023-01-29T00:01:14;102111.60;;;0.10;80.44
61478;BME280;47345;52.334;10.392;2023-01-29T00:03:44;102109.92;;;0.11;80.28
61478;BME280;47345;52.334;10.392;2023-01-29T00:06:15;102105.45;;;0.10;80.14
61478;BME280;47345;52.334;10.392;2023-01-29T00:08:46;102100.23;;;0.10;80.20
61478;BME280;47345;52.334;10.392;2023-01-29T00:11:17;102097.86;;;0.11;80.27
61478;BME280;47345;52.334;10.392;2023-01-29T00:13:49;102092.98;;;0.12;80.17
61478;BME280;47345;52.334;10.392;2023-01-29T00:16:20;102089.32;;;0.10;80.15
61478;BME280;47345;52.334;10.392;2023-01-29T00:18:50;102093.98;;;0.10;80.31
61478;BME280;47345;52.334;10.392;2023-01-29T00:21:22;102098.25;;;0.10;80.27
61478;BME280;47345;52.334;10.392;2023-01-29T00:23:54;102091.04;;;0.11;80.28
61478;BME280;47345;52.334;10.392;2023-01-29T00:26:25;102092.45;;;0.12;80.38
61478;BME280;47345;52.334;10.392;2023-01-29T00:28:56;102092.97;;;0.12;80.28
61478;BME280;47345;52.334;10.392;2023-01-29T00:31:28;102087.20;;;0.12;80.38
61478;BME280;47345;52.334;10.392;2023-01-29T00:34:00;102083.23;;;0.12;80.34
61478;BME280;47345;52.334;10.392;2023-01-29T00:36:31;102083.36;;;0.13;80.43
61478;BME280;47345;52.334;10.392;2023-01-29T00:39:01;102084.55;;;0.14;80.65
61478;BME280;47345;52.334;10.392;2023-01-29T00:41:39;102083.17;;;0.16;80.50
61478;BME280;47345;52.334;10.392;2023-01-29T00:44:25;102073.98;;;0.17;80.45
61478;BME280;47345;52.334;10.392;2023-01-29T00:47:13;102071.35;;;0.19;80.50
61478;BME280;47345;52.334;10.392;2023-01-29T00:50:08;102075.45;;;0.19;80.57
61478;BME280;47345;52.334;10.392;2023-01-29T00:52:39;102073.10;;;0.19;80.45
61478;BME280;47345;52.334;10.392;2023-01-29T00:55:11;102067.67;;;0.20;80.30
61478;BME280;47345;52.334;10.392;2023-01-29T00:57:41;102071.96;;;0.20;80.45
61478;BME280;47345;52.334;10.392;2023-01-29T01:00:15;102068.58;;;0.20;80.33
61478;BME280;47345;52.334;10.392;2023-01-29T01:02:47;102080.08;;;0.22;80.42
61478;BME280;47345;52.334;10.392;2023-01-29T01:05:35;102073.37;;;0.23;80.40
61478;BME280;47345;52.334;10.392;2023-01-29T01:08:08;102071.88;;;0.24;80.36
61478;BME280;47345;52.334;10.392;2023-01-29T01:11:01;102072.08;;;0.24;80.32
61478;BME280;47345;52.334;10.392;2023-01-29T01:13:33;102072.16;;;0.25;80.38
61478;BME280;47345;52.334;10.392;2023-01-29T01:16:09;102078.94;;;0.25;80.28
61478;BME280;47345;52.334;10.392;2023-01-29T01:18:40;102080.20;;;0.25;80.33
61478;BME280;47345;52.334;10.392;2023-01-29T01:21:11;102074.83;;;0.25;80.22
61478;BME280;47345;52.334;10.392;2023-01-29T01:23:41;102077.23;;;0.27;80.31
61478;BME280;47345;52.334;10.392;2023-01-29T01:26:12;102064.02;;;0.28;80.30
61478;BME280;47345;52.334;10.392;2023-01-29T01:28:42;102056.41;;;0.29;80.20
61478;BME280;47345;52.334;10.392;2023-01-29T01:31:14;102048.95;;;0.28;80.09
61478;BME280;47345;52.334;10.392;2023-01-29T01:33:45;102042.31;;;0.26;79.85
61478;BME280;47345;52.334;10.392;2023-01-29T01:36:16;102035.73;;;0.25;80.07
61478;BME280;47345;52.334;10.392;2023-01-29T01:38:47;102029.18;;;0.24;80.14
61478;BME280;47345;52.334;10.392;2023-01-29T01:41:19;102029.79;;;0.23;80.10
61478;BME280;47345;52.334;10.392;2023-01-29T01:43:53;102024.98;;;0.22;80.05
61478;BME280;47345;52.334;10.392;2023-01-29T01:46:25;102025.27;;;0.21;80.18
61478;BME280;47345;52.334;10.392;2023-01-29T01:48:59;102032.52;;;0.20;80.20
61478;BME280;47345;52.334;10.392;2023-01-29T01:51:32;102029.02;;;0.19;80.13
61478;BME280;47345;52.334;10.392;2023-01-29T01:54:09;102023.36;;;0.17;80.21
61478;BME280;47345;52.334;10.392;2023-01-29T01:56:43;102015.14;;;0.17;80.20
61478;BME280;47345;52.334;10.392;2023-01-29T01:59:18;102018.69;;;0.18;80.26
61478;BME280;47345;52.334;10.392;2023-01-29T02:01:50;102014.76;;;0.17;80.39
61478;BME280;47345;52.334;10.392;2023-01-29T02:04:24;102021.17;;;0.18;80.54
61478;BME280;47345;52.334;10.392;2023-01-29T02:07:14;102021.60;;;0.19;80.48
61478;BME280;47345;52.334;10.392;2023-01-29T02:10:07;102028.02;;;0.20;80.29
61478;BME280;47345;52.334;10.392;2023-01-29T02:12:38;102025.73;;;0.19;80.47
61478;BME280;47345;52.334;10.392;2023-01-29T02:15:10;102027.73;;;0.19;80.40
61478;BME280;47345;52.334;10.392;2023-01-29T02:17:42;102035.20;;;0.20;80.60
61478;BME280;47345;52.334;10.392;2023-01-29T02:20:21;102040.29;;;0.21;80.76
61478;BME280;47345;52.334;10.392;2023-01-29T02:26:08;102040.83;;;0.26;80.77
61478;BME280;47345;52.334;10.392;2023-01-29T02:28:48;102044.63;;;0.29;80.77
61478;BME280;47345;52.334;10.392;2023-01-29T02:31:26;102046.81;;;0.31;80.73
61478;BME280;47345;52.334;10.392;2023-01-29T02:34:07;102048.86;;;0.33;80.54
61478;BME280;47345;52.334;10.392;2023-01-29T02:36:46;102042.32;;;0.34;80.65
61478;BME280;47345;52.334;10.392;2023-01-29T02:39:25;102044.73;;;0.35;80.60
61478;BME280;47345;52.334;10.392;2023-01-29T02:42:05;102050.29;;;0.35;80.54
61478;BME280;47345;52.334;10.392;2023-01-29T02:44:43;102051.82;;;0.37;80.55
61478;BME280;47345;52.334;10.392;2023-01-29T02:47:20;102053.48;;;0.38;80.50
61478;BME280;47345;52.334;10.392;2023-01-29T02:49:57;102059.56;;;0.41;80.65
61478;BME280;47345;52.334;10.392;2023-01-29T02:52:34;102062.66;;;0.43;80.73
61478;BME280;47345;52.334;10.392;2023-01-29T02:55:11;102065.06;;;0.45;80.64
61478;BME280;47345;52.334;10.392;2023-01-29T02:57:45;102065.63;;;0.44;80.44
61478;BME280;47345;52.334;10.392;2023-01-29T03:00:19;102061.10;;;0.45;80.48
61478;BME280;47345;52.334;10.392;2023-01-29T03:02:54;102063.02;;;0.46;80.56
61478;BME280;47345;52.334;10.392;2023-01-29T03:05:30;102058.36;;;0.48;80.63
61478;BME280;47345;52.334;10.392;2023-01-29T03:08:04;102056.95;;;0.50;80.70
61478;BME280;47345;52.334;10.392;2023-01-29T03:10:40;102056.45;;;0.52;80.52
61478;BME280;47345;52.334;10.392;2023-01-29T03:13:17;102057.56;;;0.54;80.59
61478;BME280;47345;52.334;10.392;2023-01-29T03:15:54;102050.29;;;0.55;80.29
61478;BME280;47345;52.334;10.392;2023-01-29T03:18:32;102045.73;;;0.56;80.30
61478;BME280;47345;52.334;10.392;2023-01-29T03:21:14;102039.68;;;0.58;80.37
61478;BME280;47345;52.334;10.392;2023-01-29T03:24:07;102036.70;;;0.59;80.48
61478;BME280;47345;52.334;10.392;2023-01-29T03:26:56;102030.93;;;0.60;80.38
61478;BME280;47345;52.334;10.392;2023-01-29T03:29:48;102034.74;;;0.59;80.35
61478;BME280;47345;52.334;10.392;2023-01-29T03:32:37;102035.04;;;0.58;80.67
61478;BME280;47345;52.334;10.392;2023-01-29T03:35:10;102036.26;;;0.58;80.87
61478;BME280;47345;52.334;10.392;2023-01-29T03:37:45;102034.92;;;0.60;80.86
61478;BME280;47345;52.334;10.392;2023-01-29T03:40:16;102038.20;;;0.62;80.84
61478;BME280;47345;52.334;10.392;2023-01-29T03:42:58;102043.41;;;0.62;80.69
61478;BME280;47345;52.334;10.392;2023-01-29T03:45:38;102042.26;;;0.63;80.66
61478;BME280;47345;52.334;10.392;2023-01-29T03:48:18;102039.48;;;0.64;80.82
61478;BME280;47345;52.334;10.392;2023-01-29T03:50:58;102029.15;;;0.65;80.70
61478;BME280;47345;52.334;10.392;2023-01-29T03:53:34;102024.95;;;0.66;80.71
61478;BME280;47345;52.334;10.392;2023-01-29T03:56:23;102025.54;;;0.68;80.71
61478;BME280;47345;52.334;10.392;2023-01-29T03:58:58;102018.31;;;0.69;80.78
61478;BME280;47345;52.334;10.392;2023-01-29T04:01:34;102012.39;;;0.68;80.83
61478;BME280;47345;52.334;10.392;2023-01-29T04:04:10;102010.58;;;0.69;81.09
61478;BME280;47345;52.334;10.392;2023-01-29T04:06:46;102002.64;;;0.67;80.95
61478;BME280;47345;52.334;10.392;2023-01-29T04:09:21;101997.34;;;0.65;81.06
61478;BME280;47345;52.334;10.392;2023-01-29T04:11:56;101998.91;;;0.64;81.18
61478;BME280;47345;52.334;10.392;2023-01-29T04:14:29;101996.73;;;0.62;81.26
61478;BME280;47345;52.334;10.392;2023-01-29T04:17:04;101993.68;;;0.58;81.15
61478;BME280;47345;52.334;10.392;2023-01-29T04:19:37;101984.30;;;0.57;81.27
61478;BME280;47345;52.334;10.392;2023-01-29T04:22:12;101979.02;;;0.55;81.25
61478;BME280;47345;52.334;10.392;2023-01-29T04:24:44;101972.95;;;0.55;81.18
61478;BME280;47345;52.334;10.392;2023-01-29T04:27:28;101968.20;;;0.53;81.38
61478;BME280;47345;52.334;10.392;2023-01-29T04:30:12;101966.23;;;0.52;81.24
61478;BME280;47345;52.334;10.392;2023-01-29T04:32:59;101956.60;;;0.50;81.22
61478;BME280;47345;52.334;10.392;2023-01-29T04:35:43;101955.25;;;0.49;81.16
61478;BME280;47345;52.334;10.392;2023-01-29T04:38:27;101957.92;;;0.47;80.95
61478;BME280;47345;52.334;10.392;2023-01-29T04:41:07;101947.63;;;0.46;81.01
61478;BME280;47345;52.334;10.392;2023-01-29T04:43:44;101944.44;;;0.45;81.02
61478;BME280;47345;52.334;10.392;2023-01-29T04:46:18;101944.29;;;0.44;81.10
61478;BME280;47345;52.334;10.392;2023-01-29T04:48:59;101937.95;;;0.45;81.15
61478;BME280;47345;52.334;10.392;2023-01-29T04:51:37;101932.07;;;0.45;81.18
61478;BME280;47345;52.334;10.392;2023-01-29T04:54:17;101919.83;;;0.45;81.17
61478;BME280;47345;52.334;10.392;2023-01-29T04:56:54;101920.14;;;0.46;81.10
61478;BME280;47345;52.334;10.392;2023-01-29T04:59:31;101917.28;;;0.46;81.12
61478;BME280;47345;52.334;10.392;2023-01-29T05:02:04;101916.91;;;0.46;81.07
61478;BME280;47345;52.334;10.392;2023-01-29T05:04:40;101913.63;;;0.44;80.91
61478;BME280;47345;52.334;10.392;2023-01-29T05:07:12;101910.30;;;0.45;81.11
61478;BME280;47345;52.334;10.392;2023-01-29T05:09:45;101908.52;;;0.45;81.33
61478;BME280;47345;52.334;10.392;2023-01-29T05:12:17;101903.95;;;0.46;81.27
61478;BME280;47345;52.334;10.392;2023-01-29T05:14:49;101908.39;;;0.47;81.27
61478;BME280;47345;52.334;10.392;2023-01-29T05:17:20;101906.34;;;0.48;81.23
61478;BME280;47345;52.334;10.392;2023-01-29T05:19:51;101907.19;;;0.49;81.27
61478;BME280;47345;52.334;10.392;2023-01-29T05:22:22;101908.48;;;0.48;81.14
61478;BME280;47345;52.334;10.392;2023-01-29T05:24:52;101904.55;;;0.45;80.98
61478;BME280;47345;52.334;10.392;2023-01-29T05:27:26;101903.98;;;0.43;81.15
61478;BME280;47345;52.334;10.392;2023-01-29T05:30:16;101906.73;;;0.42;81.13
61478;BME280;47345;52.334;10.392;2023-01-29T05:32:47;101902.56;;;0.41;81.02
61478;BME280;47345;52.334;10.392;2023-01-29T05:35:17;101904.86;;;0.41;81.15
61478;BME280;47345;52.334;10.392;2023-01-29T05:37:48;101904.22;;;0.40;81.17
61478;BME280;47345;52.334;10.392;2023-01-29T05:40:18;101904.33;;;0.39;81.20
61478;BME280;47345;52.334;10.392;2023-01-29T05:42:49;101902.27;;;0.39;81.33
61478;BME280;47345;52.334;10.392;2023-01-29T05:45:20;101909.77;;;0.40;81.28
61478;BME280;47345;52.334;10.392;2023-01-29T05:47:50;101908.77;;;0.41;81.42
61478;BME280;47345;52.334;10.392;2023-01-29T05:50:25;101902.26;;;0.42;81.28
61478;BME280;47345;52.334;10.392;2023-01-29T05:53:00;101890.16;;;0.41;81.13
61478;BME280;47345;52.334;10.392;2023-01-29T05:55:31;101903.73;;;0.39;80.96
61478;BME280;47345;52.334;10.392;2023-01-29T05:58:01;101912.32;;;0.37;81.14
61478;BME280;47345;52.334;10.392;2023-01-29T06:00:34;101910.24;;;0.36;81.16
61478;BME280;47345;52.334;10.392;2023-01-29T06:03:04;101915.94;;;0.37;81.24
61478;BME280;47345;52.334;10.392;2023-01-29T06:05:38;101936.35;;;0.37;81.32
61478;BME280;47345;52.334;10.392;2023-01-29T06:08:09;101952.24;;;0.38;81.38
61478;BME280;47345;52.334;10.392;2023-01-29T06:10:40;101962.77;;;0.39;81.32
61478;BME280;47345;52.334;10.392;2023-01-29T06:13:10;101961.20;;;0.41;81.34
61478;BME280;47345;52.334;10.392;2023-01-29T06:15:41;101970.87;;;0.44;81.49
61478;BME280;47345;52.334;10.392;2023-01-29T06:18:11;101970.30;;;0.47;81.33
61478;BME280;47345;52.334;10.392;2023-01-29T06:20:42;101963.37;;;0.49;81.26
61478;BME280;47345;52.334;10.392;2023-01-29T06:23:12;101958.14;;;0.51;81.34
61478;BME280;47345;52.334;10.392;2023-01-29T06:25:43;101955.08;;;0.54;81.29
61478;BME280;47345;52.334;10.392;2023-01-29T06:28:14;101950.77;;;0.56;81.24
61478;BME280;47345;52.334;10.392;2023-01-29T06:30:44;101938.05;;;0.59;81.13
61478;BME280;47345;52.334;10.392;2023-01-29T06:33:14;101932.08;;;0.59;81.17
61478;BME280;47345;52.334;10.392;2023-01-29T06:35:45;101936.27;;;0.61;81.00
61478;BME280;47345;52.334;10.392;2023-01-29T06:38:15;101928.02;;;0.61;81.25
61478;BME280;47345;52.334;10.392;2023-01-29T06:40:46;101921.85;;;0.62;81.09
61478;BME280;47345;52.334;10.392;2023-01-29T06:43:17;101921.92;;;0.63;80.96
61478;BME280;47345;52.334;10.392;2023-01-29T06:45:49;101928.80;;;0.65;81.17
61478;BME280;47345;52.334;10.392;2023-01-29T06:48:21;101925.23;;;0.67;80.91
61478;BME280;47345;52.334;10.392;2023-01-29T06:50:52;101937.90;;;0.68;80.91
61478;BME280;47345;52.334;10.392;2023-01-29T06:53:23;101937.95;;;0.70;80.84
61478;BME280;47345;52.334;10.392;2023-01-29T06:55:54;101935.73;;;0.71;80.78
61478;BME280;47345;52.334;10.392;2023-01-29T06:58:25;101932.67;;;0.73;80.88
61478;BME280;47345;52.334;10.392;2023-01-29T07:01:03;101932.71;;;0.75;80.81
61478;BME280;47345;52.334;10.392;2023-01-29T07:03:34;101931.35;;;0.77;80.50
61478;BME280;47345;52.334;10.392;2023-01-29T07:06:05;101932.52;;;0.78;80.55
61478;BME280;47345;52.334;10.392;2023-01-29T07:08:37;101939.66;;;0.79;80.53
61478;BME280;47345;52.334;10.392;2023-01-29T07:11:08;101946.94;;;0.80;80.48
61478;BME280;47345;52.334;10.392;2023-01-29T07:13:39;101958.77;;;0.80;80.35
61478;BME280;47345;52.334;10.392;2023-01-29T07:16:10;101958.75;;;0.80;80.36
61478;BME280;47345;52.334;10.392;2023-01-29T07:18:40;101956.59;;;0.80;80.24
61478;BME280;47345;52.334;10.392;2023-01-29T07:21:11;101967.16;;;0.81;80.11
61478;BME280;47345;52.334;10.392;2023-01-29T07:23:42;101973.31;;;0.80;80.25
61478;BME280;47345;52.334;10.392;2023-01-29T07:26:12;101975.55;;;0.81;80.17
61478;BME280;47345;52.334;10.392;2023-01-29T07:28:43;101971.02;;;0.82;80.23
61478;BME280;47345;52.334;10.392;2023-01-29T07:31:14;101961.22;;;0.83;80.35
61478;BME280;47345;52.334;10.392;2023-01-29T07:33:45;101960.55;;;0.85;80.39
61478;BME280;47345;52.334;10.392;2023-01-29T07:36:15;101954.30;;;0.87;80.33
61478;BME280;47345;52.334;10.392;2023-01-29T07:38:49;101950.55;;;0.89;80.48
61478;BME280;47345;52.334;10.392;2023-01-29T07:41:20;101937.45;;;0.92;80.32
61478;BME280;47345;52.334;10.392;2023-01-29T07:43:50;101928.48;;;0.94;80.19
61478;BME280;47345;52.334;10.392;2023-01-29T07:46:21;101928.46;;;0.96;80.15
61478;BME280;47345;52.334;10.392;2023-01-29T07:48:51;101936.36;;;0.96;79.97
61478;BME280;47345;52.334;10.392;2023-01-29T07:51:22;101940.79;;;0.97;79.96
61478;BME280;47345;52.334;10.392;2023-01-29T07:53:52;101941.02;;;0.99;79.99
61478;BME280;47345;52.334;10.392;2023-01-29T07:56:23;101926.75;;;1.00;80.01
61478;BME280;47345;52.334;10.392;2023-01-29T07:58:53;101923.95;;;1.01;79.93
61478;BME280;47345;52.334;10.392;2023-01-29T08:01:24;101909.44;;;1.03;79.85
61478;BME280;47345;52.334;10.392;2023-01-29T08:03:55;101901.39;;;1.06;79.99
61478;BME280;47345;52.334;10.392;2023-01-29T08:06:25;101896.23;;;1.07;79.65
61478;BME280;47345;52.334;10.392;2023-01-29T08:08:56;101895.23;;;1.08;79.45
61478;BME280;47345;52.334;10.392;2023-01-29T08:11:27;101900.42;;;1.11;79.84
61478;BME280;47345;52.334;10.392;2023-01-29T08:13:58;101898.67;;;1.12;79.46
61478;BME280;47345;52.334;10.392;2023-01-29T08:16:29;101902.44;;;1.13;79.26
61478;BME280;47345;52.334;10.392;2023-01-29T08:19:00;101904.93;;;1.13;79.08
61478;BME280;47345;52.334;10.392;2023-01-29T08:21:30;101908.95;;;1.14;79.27
61478;BME280;47345;52.334;10.392;2023-01-29T08:24:01;101901.86;;;1.15;79.16
61478;BME280;47345;52.334;10.392;2023-01-29T08:26:31;101894.17;;;1.17;79.25
61478;BME280;47345;52.334;10.392;2023-01-29T08:29:02;101894.96;;;1.19;79.32
61478;BME280;47345;52.334;10.392;2023-01-29T08:31:32;101897.30;;;1.22;79.11
61478;BME280;47345;52.334;10.392;2023-01-29T08:34:03;101899.48;;;1.23;79.27
61478;BME280;47345;52.334;10.392;2023-01-29T08:36:34;101902.80;;;1.25;78.94
61478;BME280;47345;52.334;10.392;2023-01-29T08:39:04;101905.80;;;1.25;78.93
61478;BME280;47345;52.334;10.392;2023-01-29T08:41:35;101904.67;;;1.26;79.04
61478;BME280;47345;52.334;10.392;2023-01-29T08:44:05;101901.32;;;1.28;79.30
61478;BME280;47345;52.334;10.392;2023-01-29T08:46:36;101900.89;;;1.28;79.04
61478;BME280;47345;52.334;10.392;2023-01-29T08:49:10;101900.39;;;1.30;79.29
61478;BME280;47345;52.334;10.392;2023-01-29T08:51:41;101902.08;;;1.31;79.51
61478;BME280;47345;52.334;10.392;2023-01-29T08:54:12;101895.96;;;1.32;79.62
61478;BME280;47345;52.334;10.392;2023-01-29T08:56:42;101905.05;;;1.33;79.76
61478;BME280;47345;52.334;10.392;2023-01-29T08:59:13;101901.00;;;1.34;80.48
61478;BME280;47345;52.334;10.392;2023-01-29T09:01:44;101892.45;;;1.36;80.62
61478;BME280;47345;52.334;10.392;2023-01-29T09:04:15;101886.39;;;1.37;81.29
61478;BME280;47345;52.334;10.392;2023-01-29T09:06:45;101878.39;;;1.38;81.33
61478;BME280;47345;52.334;10.392;2023-01-29T09:09:16;101875.10;;;1.39;81.22
61478;BME280;47345;52.334;10.392;2023-01-29T09:11:47;101872.50;;;1.38;81.10
61478;BME280;47345;52.334;10.392;2023-01-29T09:14:17;101869.06;;;1.38;81.18
61478;BME280;47345;52.334;10.392;2023-01-29T09:16:48;101858.30;;;1.40;81.18
61478;BME280;47345;52.334;10.392;2023-01-29T09:19:18;101858.42;;;1.43;81.03
61478;BME280;47345;52.334;10.392;2023-01-29T09:21:49;101857.76;;;1.45;81.03
61478;BME280;47345;52.334;10.392;2023-01-29T09:24:19;101853.30;;;1.47;80.62
61478;BME280;47345;52.334;10.392;2023-01-29T09:26:50;101849.67;;;1.47;80.47
61478;BME280;47345;52.334;10.392;2023-01-29T09:29:20;101854.40;;;1.49;80.34
61478;BME280;47345;52.334;10.392;2023-01-29T09:31:51;101855.43;;;1.52;80.66
61478;BME280;47345;52.334;10.392;2023-01-29T09:34:22;101845.10;;;1.55;80.25
61478;BME280;47345;52.334;10.392;2023-01-29T09:36:53;101843.33;;;1.57;80.11
61478;BME280;47345;52.334;10.392;2023-01-29T09:39:24;101845.02;;;1.58;79.86
61478;BME280;47345;52.334;10.392;2023-01-29T09:41:58;101845.04;;;1.60;79.99
61478;BME280;47345;52.334;10.392;2023-01-29T09:44:51;101845.95;;;1.63;79.85
61478;BME280;47345;52.334;10.392;2023-01-29T09:47:26;101844.31;;;1.65;79.79
61478;BME280;47345;52.334;10.392;2023-01-29T09:49:59;101844.29;;;1.68;79.67
61478;BME280;47345;52.334;10.392;2023-01-29T09:52:33;101840.23;;;1.69;79.61
61478;BME280;47345;52.334;10.392;2023-01-29T09:55:09;101838.58;;;1.72;79.45
61478;BME280;47345;52.334;10.392;2023-01-29T09:57:45;101842.23;;;1.75;79.53
61478;BME280;47345;52.334;10.392;2023-01-29T10:00:21;101840.88;;;1.79;79.57
61478;BME280;47345;52.334;10.392;2023-01-29T10:03:09;101835.70;;;1.81;79.33
61478;BME280;47345;52.334;10.392;2023-01-29T10:05:57;101839.09;;;1.84;79.68
61478;BME280;47345;52.334;10.392;2023-01-29T10:09:11;101829.73;;;1.88;79.36
61478;BME280;47345;52.334;10.392;2023-01-29T10:11:57;101828.05;;;1.94;79.22
61478;BME280;47345;52.334;10.392;2023-01-29T10:14:42;101822.52;;;1.97;78.99
61478;BME280;47345;52.334;10.392;2023-01-29T10:17:30;101822.63;;;2.01;78.88
61478;BME280;47345;52.334;10.392;2023-01-29T10:23:15;101813.42;;;2.08;78.96
61478;BME280;47345;52.334;10.392;2023-01-29T10:25:48;101814.97;;;2.11;78.93
61478;BME280;47345;52.334;10.392;2023-01-29T10:28:22;101817.80;;;2.13;78.50
61478;BME280;47345;52.334;10.392;2023-01-29T10:31:00;101812.65;;;2.15;78.57
61478;BME280;47345;52.334;10.392;2023-01-29T10:33:37;101812.86;;;2.17;78.62
61478;BME280;47345;52.334;10.392;2023-01-29T10:36:33;101815.50;;;2.20;78.84
61478;BME280;47345;52.334;10.392;2023-01-29T10:39:08;101813.64;;;2.25;79.08
61478;BME280;47345;52.334;10.392;2023-01-29T10:42:01;101816.56;;;2.29;78.81
61478;BME280;47345;52.334;10.392;2023-01-29T10:44:40;101810.27;;;2.31;78.71
61478;BME280;47345;52.334;10.392;2023-01-29T10:47:36;101807.13;;;2.32;78.65
61478;BME280;47345;52.334;10.392;2023-01-29T10:50:23;101806.48;;;2.33;78.79
61478;BME280;47345;52.334;10.392;2023-01-29T10:53:09;101805.40;;;2.35;78.88
61478;BME280;47345;52.334;10.392;2023-01-29T10:55:54;101798.52;;;2.38;78.54
61478;BME280;47345;52.334;10.392;2023-01-29T10:58:33;101791.13;;;2.41;78.43
61478;BME280;47345;52.334;10.392;2023-01-29T11:01:06;101784.32;;;2.42;78.23
61478;BME280;47345;52.334;10.392;2023-01-29T11:03:37;101781.31;;;2.44;78.45
61478;BME280;47345;52.334;10.392;2023-01-29T11:06:14;101775.81;;;2.45;78.25
61478;BME280;47345;52.334;10.392;2023-01-29T11:08:51;101771.38;;;2.44;78.10
61478;BME280;47345;52.334;10.392;2023-01-29T11:11:29;101771.46;;;2.45;77.70
61478;BME280;47345;52.334;10.392;2023-01-29T11:14:04;101764.56;;;2.46;78.05
61478;BME280;47345;52.334;10.392;2023-01-29T11:16:42;101767.15;;;2.47;77.79
61478;BME280;47345;52.334;10.392;2023-01-29T11:19:14;101763.33;;;2.48;77.82
61478;BME280;47345;52.334;10.392;2023-01-29T11:21:57;101754.19;;;2.49;77.86
61478;BME280;47345;52.334;10.392;2023-01-29T11:24:29;101754.98;;;2.53;77.69
61478;BME280;47345;52.334;10.392;2023-01-29T11:27:00;101750.48;;;2.55;77.79
61478;BME280;47345;52.334;10.392;2023-01-29T11:29:38;101743.30;;;2.57;77.74
61478;BME280;47345;52.334;10.392;2023-01-29T11:32:13;101741.13;;;2.59;77.87
61478;BME280;47345;52.334;10.392;2023-01-29T11:35:02;101733.97;;;2.63;77.66
61478;BME280;47345;52.334;10.392;2023-01-29T11:37:35;101732.46;;;2.66;77.50
61478;BME280;47345;52.334;10.392;2023-01-29T11:40:40;101724.82;;;2.67;77.24
61478;BME280;47345;52.334;10.392;2023-01-29T11:43:19;101725.46;;;2.70;77.14
61478;BME280;47345;52.334;10.392;2023-01-29T11:45:52;101720.21;;;2.72;76.93
61478;BME280;47345;52.334;10.392;2023-01-29T11:48:32;101719.11;;;2.73;76.47
61478;BME280;47345;52.334;10.392;2023-01-29T11:51:04;101709.70;;;2.75;76.55
61478;BME280;47345;52.334;10.392;2023-01-29T11:53:39;101702.11;;;2.75;76.80
61478;BME280;47345;52.334;10.392;2023-01-29T11:56:22;101700.09;;;2.78;76.75
61478;BME280;47345;52.334;10.392;2023-01-29T11:58:58;101697.32;;;2.79;76.34
61478;BME280;47345;52.334;10.392;2023-01-29T12:01:34;101687.54;;;2.79;76.57
61478;BME280;47345;52.334;10.392;2023-01-29T12:04:17;101681.34;;;2.80;76.32
61478;BME280;47345;52.334;10.392;2023-01-29T12:06:50;101685.36;;;2.84;76.25
61478;BME280;47345;52.334;10.392;2023-01-29T12:09:23;101678.20;;;2.85;75.84
61478;BME280;47345;52.334;10.392;2023-01-29T12:11:55;101675.40;;;2.87;75.80
61478;BME280;47345;52.334;10.392;2023-01-29T12:14:45;101676.02;;;2.87;75.71
61478;BME280;47345;52.334;10.392;2023-01-29T12:17:19;101676.09;;;2.89;75.78
61478;BME280;47345;52.334;10.392;2023-01-29T12:19:58;101677.02;;;2.91;75.82
61478;BME280;47345;52.334;10.392;2023-01-29T12:22:40;101677.01;;;2.93;75.60
61478;BME280;47345;52.334;10.392;2023-01-29T12:25:20;101666.85;;;2.93;75.28
61478;BME280;47345;52.334;10.392;2023-01-29T12:27:56;101665.96;;;2.93;75.34
61478;BME280;47345;52.334;10.392;2023-01-29T12:30:33;101660.28;;;2.95;75.63
61478;BME280;47345;52.334;10.392;2023-01-29T12:33:11;101658.11;;;2.97;75.45
61478;BME280;47345;52.334;10.392;2023-01-29T12:35:45;101658.30;;;3.01;75.65
61478;BME280;47345;52.334;10.392;2023-01-29T12:38:19;101655.77;;;3.03;75.37
61478;BME280;47345;52.334;10.392;2023-01-29T12:40:52;101649.75;;;3.04;74.98
61478;BME280;47345;52.334;10.392;2023-01-29T12:43:29;101648.17;;;3.03;75.05
61478;BME280;47345;52.334;10.392;2023-01-29T12:46:03;101651.50;;;3.02;75.05
61478;BME280;47345;52.334;10.392;2023-01-29T12:48:38;101649.20;;;3.02;74.85
61478;BME280;47345;52.334;10.392;2023-01-29T12:51:14;101644.86;;;3.02;74.98
61478;BME280;47345;52.334;10.392;2023-01-29T12:53:51;101639.60;;;3.01;74.70
61478;BME280;47345;52.334;10.392;2023-01-29T12:56:28;101639.24;;;2.99;74.81
61478;BME280;47345;52.334;10.392;2023-01-29T12:59:03;101643.30;;;2.95;74.79
61478;BME280;47345;52.334;10.392;2023-01-29T13:01:37;101646.67;;;2.93;74.80
61478;BME280;47345;52.334;10.392;2023-01-29T13:04:15;101645.82;;;2.93;75.14
61478;BME280;47345;52.334;10.392;2023-01-29T13:06:50;101642.28;;;2.90;74.74
61478;BME280;47345;52.334;10.392;2023-01-29T13:09:25;101634.30;;;2.87;74.53
61478;BME280;47345;52.334;10.392;2023-01-29T13:11:59;101634.58;;;2.86;74.67
61478;BME280;47345;52.334;10.392;2023-01-29T13:14:43;101631.54;;;2.86;74.82
61478;BME280;47345;52.334;10.392;2023-01-29T13:17:20;101627.42;;;2.85;74.82
61478;BME280;47345;52.334;10.392;2023-01-29T13:19:54;101615.60;;;2.82;74.53
61478;BME280;47345;52.334;10.392;2023-01-29T13:22:28;101606.73;;;2.85;74.96
61478;BME280;47345;52.334;10.392;2023-01-29T13:25:01;101606.55;;;2.87;75.09
61478;BME280;47345;52.334;10.392;2023-01-29T13:27:35;101599.21;;;2.88;75.13
61478;BME280;47345;52.334;10.392;2023-01-29T13:30:21;101593.91;;;2.89;75.01
61478;BME280;47345;52.334;10.392;2023-01-29T13:32:54;101590.02;;;2.90;74.78
61478;BME280;47345;52.334;10.392;2023-01-29T13:35:41;101588.16;;;2.91;74.70
61478;BME280;47345;52.334;10.392;2023-01-29T13:38:24;101581.09;;;2.91;74.54